createdAt,value
2018-02-11T00:00:29.202Z,40.85
2018-02-11T00:02:56.654Z,39.80
2018-02-11T00:05:24.198Z,40.65
2018-02-11T00:07:51.657Z,42.75
2018-02-11T00:10:19.093Z,42.53
2018-02-11T00:12:46.534Z,42.53
2018-02-11T00:15:14.021Z,44.42
2018-02-11T00:17:41.458Z,44.15
2018-02-11T00:20:08.910Z,43.38
2018-02-11T00:22:36.333Z,44.17
2018-02-11T00:25:03.768Z,43.03
2018-02-11T00:27:31.322Z,43.58
2018-02-11T00:29:58.762Z,44.25
2018-02-11T00:32:26.201Z,43.83
2018-02-11T00:34:53.646Z,44.08
2018-02-11T00:37:26.822Z,43.20
2018-02-11T00:39:55.037Z,43.90
2018-02-11T00:42:22.469Z,42.70
2018-02-11T00:44:49.905Z,43.00
2018-02-11T00:47:18.125Z,42.90
2018-02-11T00:49:45.599Z,41.13
2018-02-11T00:52:13.028Z,41.50
2018-02-11T00:54:40.453Z,41.80
2018-02-11T00:57:07.949Z,41.08
2018-02-11T00:59:35.402Z,39.90
2018-02-11T01:02:02.866Z,42.25
2018-02-11T01:04:30.315Z,39.88
2018-02-11T01:06:57.761Z,42.28
2018-02-11T01:09:25.189Z,41.65
2018-02-11T01:11:52.774Z,42.50
2018-02-11T01:14:20.258Z,42.03
2018-02-11T01:16:47.746Z,41.70
2018-02-11T01:19:15.983Z,41.55
2018-02-11T01:21:43.418Z,42.15
2018-02-11T01:24:10.898Z,40.75
2018-02-11T01:26:38.330Z,41.60
2018-02-11T01:29:05.802Z,42.25
2018-02-11T01:31:33.340Z,43.38
2018-02-11T01:34:00.774Z,42.70
2018-02-11T01:36:28.997Z,41.97
2018-02-11T01:38:56.433Z,46.10
2018-02-11T01:41:23.889Z,43.72
2018-02-11T01:43:51.427Z,42.30
2018-02-11T01:46:19.025Z,44.87
2018-02-11T01:48:46.481Z,42.55
2018-02-11T01:51:13.918Z,43.03
2018-02-11T01:53:41.417Z,43.10
2018-02-11T01:56:08.926Z,44.35
2018-02-11T01:58:36.614Z,43.15
2018-02-11T02:01:04.044Z,42.80
2018-02-11T02:03:31.533Z,43.87
2018-02-11T02:05:58.970Z,43.20
2018-02-11T02:08:26.410Z,41.58
2018-02-11T02:10:53.897Z,42.62
2018-02-11T02:13:21.341Z,42.40
2018-02-11T02:15:48.769Z,44.00
2018-02-11T02:18:16.981Z,42.88
2018-02-11T02:20:44.437Z,41.85
2018-02-11T02:23:11.874Z,42.58
2018-02-11T02:25:39.353Z,42.10
2018-02-11T02:28:06.786Z,41.83
2018-02-11T02:30:34.224Z,41.65
2018-02-11T02:33:01.724Z,39.72
2018-02-11T02:35:29.151Z,40.80
2018-02-11T02:37:56.657Z,39.78
2018-02-11T02:40:24.192Z,41.45
2018-02-11T02:42:51.626Z,40.40
2018-02-11T02:45:19.048Z,42.10
2018-02-11T02:47:47.277Z,40.50
2018-02-11T02:50:14.708Z,39.20
2018-02-11T02:52:42.177Z,39.80
2018-02-11T02:55:09.645Z,38.13
2018-02-11T02:57:37.087Z,38.22
2018-02-11T03:00:04.513Z,38.05
2018-02-11T03:02:32.713Z,37.45
2018-02-11T03:05:00.241Z,40.95
2018-02-11T03:07:27.750Z,39.28
2018-02-11T03:09:55.189Z,36.25
2018-02-11T03:12:22.657Z,36.53
2018-02-11T03:14:50.087Z,35.30
2018-02-11T03:17:17.518Z,37.50
2018-02-11T03:19:45.725Z,35.90
2018-02-11T03:22:13.215Z,35.65
2018-02-11T03:24:40.644Z,32.95
2018-02-11T03:27:08.128Z,34.72
2018-02-11T03:29:35.557Z,34.38
2018-02-11T03:32:03.033Z,34.45
2018-02-11T03:34:30.469Z,32.30
2018-02-11T03:36:57.911Z,32.45
2018-02-11T03:39:25.338Z,32.50
2018-02-11T03:41:53.532Z,32.77
2018-02-11T03:44:20.968Z,32.13
2018-02-11T03:46:49.202Z,32.00
2018-02-11T03:49:16.637Z,30.85
2018-02-11T03:51:44.119Z,31.17
2018-02-11T03:54:11.552Z,31.33
2018-02-11T03:56:39.124Z,31.30
2018-02-11T03:59:06.574Z,30.23
2018-02-11T04:01:34.041Z,30.00
2018-02-11T04:04:01.494Z,28.12
2018-02-11T04:06:28.934Z,28.92
2018-02-11T04:08:56.369Z,27.80
2018-02-11T04:11:23.804Z,27.58
2018-02-11T04:13:52.017Z,25.92
2018-02-11T04:16:19.454Z,25.90
2018-02-11T04:18:47.649Z,26.25
2018-02-11T04:21:15.221Z,26.00
2018-02-11T04:23:42.780Z,24.98
2018-02-11T04:26:10.208Z,25.20
2018-02-11T04:28:37.669Z,24.10
2018-02-11T04:31:05.113Z,25.12
2018-02-11T04:33:32.613Z,24.30
2018-02-11T04:36:00.054Z,24.58
2018-02-11T04:38:27.534Z,25.02
2018-02-11T04:40:54.984Z,23.42
2018-02-11T04:43:22.433Z,23.58
2018-02-11T04:45:49.899Z,23.80
2018-02-11T04:48:17.333Z,23.60
2018-02-11T04:50:44.801Z,23.50
2018-02-11T04:53:12.225Z,23.73
2018-02-11T04:55:39.737Z,23.70
2018-02-11T04:58:07.290Z,23.12
2018-02-11T05:00:34.730Z,22.55
2018-02-11T05:03:02.169Z,23.12
2018-02-11T05:05:29.630Z,23.12
2018-02-11T05:07:57.106Z,22.52
2018-02-11T05:10:24.569Z,21.23
2018-02-11T05:12:52.009Z,23.30
2018-02-11T05:15:19.443Z,22.45
2018-02-11T05:17:46.882Z,22.45
2018-02-11T05:20:14.309Z,22.35
2018-02-11T05:22:41.768Z,22.42
2018-02-11T05:25:09.286Z,21.50
2018-02-11T05:27:36.757Z,21.02
2018-02-11T05:30:04.194Z,21.98
2018-02-11T05:32:31.658Z,22.08
2018-02-11T05:34:59.222Z,20.52
2018-02-11T05:37:26.658Z,21.10
2018-02-11T05:39:54.085Z,21.20
2018-02-11T05:42:22.301Z,21.33
2018-02-11T05:44:49.737Z,20.70
2018-02-11T05:47:17.161Z,21.20
2018-02-11T05:49:45.361Z,20.98
2018-02-11T05:52:12.949Z,19.55
2018-02-11T05:54:40.494Z,20.77
2018-02-11T05:57:07.946Z,20.95
2018-02-11T05:59:35.416Z,20.10
2018-02-11T06:02:02.867Z,20.37
2018-02-11T06:04:30.293Z,19.93
2018-02-11T06:06:58.509Z,20.40
2018-02-11T06:09:25.952Z,19.20
2018-02-11T06:11:53.525Z,19.67
2018-02-11T06:14:20.952Z,19.20
2018-02-11T06:16:48.437Z,19.10
2018-02-11T06:19:16.002Z,19.15
2018-02-11T06:21:43.440Z,17.77
2018-02-11T06:24:10.925Z,18.23
2018-02-11T06:26:42.278Z,18.30
2018-02-11T06:29:09.717Z,17.83
2018-02-11T06:31:37.282Z,18.40
2018-02-11T06:34:04.722Z,17.98
2018-02-11T06:36:32.230Z,17.62
2018-02-11T06:38:59.627Z,17.70
2018-02-11T06:41:27.058Z,17.85
2018-02-11T06:43:54.485Z,18.98
2018-02-11T06:46:22.697Z,18.10
2018-02-11T06:48:50.185Z,17.87
2018-02-11T06:51:17.611Z,18.17
2018-02-11T06:53:45.045Z,18.60
2018-02-11T06:56:13.248Z,18.58
2018-02-11T06:58:40.721Z,18.92
2018-02-11T07:01:08.277Z,17.95
2018-02-11T07:03:35.744Z,19.00
2018-02-11T07:06:03.194Z,18.85
2018-02-11T07:08:30.634Z,19.48
2018-02-11T07:10:58.065Z,18.62
2018-02-11T07:13:26.298Z,18.75
2018-02-11T07:15:53.841Z,19.58
2018-02-11T07:18:21.286Z,20.35
2018-02-11T07:20:48.756Z,19.33
2018-02-11T07:23:16.216Z,20.45
2018-02-11T07:25:43.653Z,19.67
2018-02-11T07:28:11.081Z,19.50
2018-02-11T07:30:38.520Z,19.80
2018-02-11T07:33:06.037Z,19.55
2018-02-11T07:35:33.493Z,19.98
2018-02-11T07:38:00.917Z,20.50
2018-02-11T07:40:28.340Z,19.55
2018-02-11T07:42:56.540Z,20.30
2018-02-11T07:45:23.973Z,20.02
2018-02-11T07:47:52.213Z,19.92
2018-02-11T07:50:19.681Z,19.50
2018-02-11T07:52:47.123Z,19.87
2018-02-11T07:55:14.557Z,18.58
2018-02-11T07:57:41.989Z,19.73
2018-02-11T08:00:09.426Z,19.80
2018-02-11T08:02:36.954Z,19.45
2018-02-11T08:05:04.407Z,19.55
2018-02-11T08:07:31.854Z,18.92
2018-02-11T08:09:59.385Z,18.40
2018-02-11T08:12:26.884Z,18.10
2018-02-11T08:14:54.335Z,18.20
2018-02-11T08:17:21.770Z,19.12
2018-02-11T08:19:49.251Z,17.33
2018-02-11T08:22:16.685Z,18.45
2018-02-11T08:24:44.129Z,18.65
2018-02-11T08:27:11.635Z,16.90
2018-02-11T08:29:39.270Z,18.12
2018-02-11T08:32:06.705Z,16.05
2018-02-11T08:34:34.187Z,17.15
2018-02-11T08:37:01.618Z,17.42
2018-02-11T08:39:29.041Z,17.95
2018-02-11T08:41:57.269Z,17.10
2018-02-11T08:44:24.707Z,16.60
2018-02-11T08:46:52.133Z,16.15
2018-02-11T08:49:20.362Z,16.77
2018-02-11T08:51:47.820Z,16.92
2018-02-11T08:54:15.251Z,17.05
2018-02-11T08:56:42.689Z,16.87
2018-02-11T08:59:10.163Z,16.73
2018-02-11T09:01:37.575Z,16.60
2018-02-11T09:04:05.813Z,16.27
2018-02-11T09:06:33.225Z,16.87
2018-02-11T09:09:01.435Z,15.23
2018-02-11T09:11:28.904Z,15.00
2018-02-11T09:13:56.438Z,15.20
2018-02-11T09:16:23.865Z,16.27
2018-02-11T09:18:52.069Z,15.88
2018-02-11T09:21:20.394Z,15.50
2018-02-11T09:23:47.826Z,16.27
2018-02-11T09:26:15.341Z,16.00
2018-02-11T09:28:42.825Z,13.40
2018-02-11T09:31:10.289Z,15.00
2018-02-11T09:33:37.730Z,14.80
2018-02-11T09:36:05.161Z,15.90
2018-02-11T09:38:32.617Z,13.50
2018-02-11T09:41:00.044Z,13.27
2018-02-11T09:43:27.474Z,13.37
2018-02-11T09:45:54.905Z,13.05
2018-02-11T09:48:22.332Z,12.70
2018-02-11T09:50:50.551Z,10.98
2018-02-11T09:53:17.981Z,11.82
2018-02-11T09:55:45.410Z,10.73
2018-02-11T09:58:13.644Z,11.57
2018-02-11T10:00:41.102Z,12.90
2018-02-11T10:03:08.552Z,9.45
2018-02-11T10:05:36.009Z,10.70
2018-02-11T10:08:03.453Z,10.05
2018-02-11T10:10:30.898Z,10.48
2018-02-11T10:12:58.333Z,9.70
2018-02-11T10:15:25.842Z,8.85
2018-02-11T10:17:53.282Z,9.43
2018-02-11T10:20:20.746Z,8.90
2018-02-11T10:22:48.205Z,8.93
2018-02-11T10:25:15.659Z,8.98
2018-02-11T10:27:43.201Z,8.90
2018-02-11T10:30:10.692Z,9.57
2018-02-11T10:32:38.233Z,8.30
2018-02-11T10:35:05.680Z,9.35
2018-02-11T10:37:33.154Z,8.07
2018-02-11T10:40:00.713Z,8.45
2018-02-11T10:42:28.151Z,8.70
2018-02-11T10:44:55.586Z,8.60
2018-02-11T10:47:23.010Z,8.50
2018-02-11T10:49:51.213Z,8.45
2018-02-11T10:52:18.637Z,9.00
2018-02-11T10:54:46.874Z,8.55
2018-02-11T10:57:14.289Z,9.02
2018-02-11T10:59:41.790Z,8.70
2018-02-11T11:02:09.331Z,8.55
2018-02-11T11:04:36.745Z,9.30
2018-02-11T11:07:04.978Z,9.77
2018-02-11T11:09:32.436Z,9.23
2018-02-11T11:11:59.868Z,10.63
2018-02-11T11:14:27.381Z,8.88
2018-02-11T11:16:54.815Z,8.60
2018-02-11T11:19:22.245Z,9.77
2018-02-11T11:21:49.730Z,9.32
2018-02-11T11:24:17.289Z,11.12
2018-02-11T11:26:44.745Z,10.30
2018-02-11T11:29:12.203Z,10.52
2018-02-11T11:31:39.637Z,10.38
2018-02-11T11:34:07.102Z,10.27
2018-02-11T11:36:34.657Z,10.30
2018-02-11T11:39:02.101Z,10.77
2018-02-11T11:41:29.525Z,10.52
2018-02-11T11:43:56.954Z,11.43
2018-02-11T11:46:24.562Z,10.82
2018-02-11T11:48:52.048Z,10.50
2018-02-11T11:51:19.577Z,11.70
2018-02-11T11:53:47.001Z,10.55
2018-02-11T11:56:15.221Z,10.88
2018-02-11T11:58:42.662Z,10.25
2018-02-11T12:01:10.129Z,10.75
2018-02-11T12:03:37.585Z,10.20
2018-02-11T12:06:05.048Z,10.73
2018-02-11T12:08:32.605Z,10.43
2018-02-11T12:11:00.057Z,11.10
2018-02-11T12:13:27.622Z,11.57
2018-02-11T12:15:55.177Z,11.50
2018-02-11T12:18:22.609Z,11.90
2018-02-11T12:20:50.045Z,12.27
2018-02-11T12:23:18.250Z,12.82
2018-02-11T12:25:45.717Z,12.32
2018-02-11T12:28:13.148Z,12.25
2018-02-11T12:30:40.638Z,10.82
2018-02-11T12:33:08.067Z,11.12
2018-02-11T12:35:35.554Z,11.00
2018-02-11T12:38:03.115Z,10.82
2018-02-11T12:40:30.648Z,10.80
2018-02-11T12:42:58.125Z,9.68
2018-02-11T12:45:25.586Z,11.27
2018-02-11T12:47:53.029Z,9.55
2018-02-11T12:50:20.466Z,10.13
2018-02-11T12:52:47.952Z,11.23
2018-02-11T12:55:15.402Z,9.50
2018-02-11T12:57:42.832Z,10.00
2018-02-11T13:00:10.253Z,9.38
2018-02-11T13:02:38.493Z,9.70
2018-02-11T13:05:05.919Z,10.38
2018-02-11T13:07:33.362Z,9.32
2018-02-11T13:10:01.411Z,10.40
2018-02-11T13:12:28.308Z,10.00
2018-02-11T13:14:55.857Z,9.15
2018-02-11T13:17:23.371Z,9.70
2018-02-11T13:19:51.577Z,12.02
2018-02-11T13:22:19.045Z,10.23
2018-02-11T13:24:46.453Z,10.50
2018-02-11T13:27:13.978Z,9.90
2018-02-11T13:29:41.434Z,9.52
2018-02-11T13:32:08.893Z,9.70
2018-02-11T13:34:36.329Z,9.18
2018-02-11T13:37:03.769Z,10.45
2018-02-11T13:39:31.205Z,8.95
2018-02-11T13:41:59.406Z,8.55
2018-02-11T13:44:26.881Z,8.82
2018-02-11T13:46:54.427Z,9.02
2018-02-11T13:49:21.897Z,10.05
2018-02-11T13:51:49.361Z,9.60
2018-02-11T13:54:16.797Z,10.35
2018-02-11T13:56:44.273Z,8.10
2018-02-11T13:59:11.758Z,8.23
2018-02-11T14:01:39.242Z,7.85
2018-02-11T14:04:07.469Z,8.65
2018-02-11T14:06:34.894Z,7.87
2018-02-11T14:09:02.323Z,7.68
2018-02-11T14:11:30.654Z,7.57
2018-02-11T14:13:58.093Z,6.70
2018-02-11T14:16:25.521Z,6.65
2018-02-11T14:18:52.965Z,6.93
2018-02-11T14:21:21.165Z,6.55
2018-02-11T14:23:48.749Z,6.80
2018-02-11T14:26:16.178Z,7.00
2018-02-11T14:28:43.661Z,7.40
2018-02-11T14:31:11.114Z,8.40
2018-02-11T14:33:38.548Z,7.60
2018-02-11T14:36:05.965Z,7.70
2018-02-11T14:38:34.169Z,8.30
2018-02-11T14:41:01.655Z,7.82
2018-02-11T14:43:29.107Z,7.53
2018-02-11T14:45:56.529Z,7.60
2018-02-11T14:48:24.033Z,8.02
2018-02-11T14:50:51.477Z,7.80
2018-02-11T14:53:18.905Z,7.47
2018-02-11T14:55:46.335Z,7.82
2018-02-11T14:58:13.849Z,6.65
2018-02-11T15:00:41.280Z,6.80
2018-02-11T15:03:08.765Z,7.12
2018-02-11T15:05:36.206Z,6.93
2018-02-11T15:08:03.672Z,7.75
2018-02-11T15:10:31.132Z,8.80
2018-02-11T15:12:58.596Z,9.65
2018-02-11T15:15:26.131Z,9.10
2018-02-11T15:17:53.605Z,8.00
2018-02-11T15:20:21.165Z,7.60
2018-02-11T15:22:48.617Z,6.75
2018-02-11T15:25:16.053Z,5.22
2018-02-11T15:27:43.489Z,5.80
2018-02-11T15:30:10.926Z,4.28
2018-02-11T15:32:39.158Z,4.40
2018-02-11T15:35:06.590Z,4.00
2018-02-11T15:37:34.066Z,4.28
2018-02-11T15:40:01.506Z,4.45
2018-02-11T15:42:28.993Z,4.25
2018-02-11T15:44:56.437Z,4.70
2018-02-11T15:47:23.901Z,4.70
2018-02-11T15:49:51.329Z,5.95
2018-02-11T15:52:18.820Z,5.75
2018-02-11T15:54:46.238Z,5.53
2018-02-11T15:57:13.717Z,6.37
2018-02-11T15:59:41.169Z,5.60
2018-02-11T16:02:08.604Z,6.40
2018-02-11T16:04:36.030Z,6.90
2018-02-11T16:07:03.462Z,6.35
2018-02-11T16:09:30.897Z,6.60
2018-02-11T16:11:58.332Z,7.10
2018-02-11T16:14:25.761Z,6.90
2018-02-11T16:16:53.999Z,6.30
2018-02-11T16:19:21.529Z,6.50
2018-02-11T16:21:49.020Z,4.80
2018-02-11T16:24:16.396Z,4.45
2018-02-11T16:26:43.835Z,5.60
2018-02-11T16:29:11.269Z,4.72
2018-02-11T16:31:38.829Z,5.20
2018-02-11T16:34:06.253Z,4.28
2018-02-11T16:36:33.684Z,5.62
2018-02-11T16:39:01.882Z,4.05
2018-02-11T16:41:29.391Z,3.87
2018-02-11T16:43:56.853Z,4.15
2018-02-11T16:46:24.281Z,4.35
2018-02-11T16:48:51.749Z,4.60
2018-02-11T16:51:19.221Z,5.00
2018-02-11T16:53:46.668Z,4.95
2018-02-11T16:56:14.105Z,4.30
2018-02-11T16:58:41.525Z,4.00
2018-02-11T17:01:08.957Z,3.75
2018-02-11T17:03:37.198Z,3.30
2018-02-11T17:06:04.654Z,3.40
2018-02-11T17:08:32.085Z,3.60
2018-02-11T17:10:59.505Z,3.95
2018-02-11T17:13:27.704Z,3.47
2018-02-11T17:15:55.134Z,3.95
2018-02-11T17:18:23.356Z,3.47
2018-02-11T17:20:50.832Z,4.55
2018-02-11T17:23:18.290Z,4.40
2018-02-11T17:25:45.734Z,3.95
2018-02-11T17:28:13.157Z,4.03
2018-02-11T17:30:40.666Z,4.10
2018-02-11T17:33:08.120Z,4.55
2018-02-11T17:35:35.665Z,4.60
2018-02-11T17:38:03.098Z,4.70
2018-02-11T17:40:30.517Z,4.62
2018-02-11T17:42:58.872Z,4.85
2018-02-11T17:45:26.494Z,4.50
2018-02-11T17:47:53.922Z,4.55
2018-02-11T17:50:22.146Z,4.62
2018-02-11T17:52:49.583Z,4.80
2018-02-11T17:55:17.014Z,4.50
2018-02-11T17:57:45.241Z,4.30
2018-02-11T18:00:14.190Z,5.00
2018-02-11T18:02:41.681Z,4.53
2018-02-11T18:05:09.125Z,3.62
2018-02-11T18:07:36.553Z,4.28
2018-02-11T18:10:03.981Z,3.67
2018-02-11T18:12:32.168Z,4.10
2018-02-11T18:15:00.372Z,5.60
2018-02-11T18:17:27.802Z,4.60
2018-02-11T18:19:56.018Z,5.72
2018-02-11T18:22:23.484Z,4.28
2018-02-11T18:24:50.915Z,5.30
2018-02-11T18:27:18.359Z,5.05
2018-02-11T18:29:45.853Z,5.15
2018-02-11T18:32:13.305Z,4.30
2018-02-11T18:34:40.945Z,4.20
2018-02-11T18:37:08.518Z,4.40
2018-02-11T18:39:36.078Z,4.50
2018-02-11T18:42:03.508Z,4.25
2018-02-11T18:44:30.954Z,4.45
2018-02-11T18:46:59.150Z,4.00
2018-02-11T18:49:26.721Z,4.03
2018-02-11T18:51:54.162Z,4.65
2018-02-11T18:54:21.632Z,5.00
2018-02-11T18:56:49.094Z,4.53
2018-02-11T18:59:16.517Z,4.85
2018-02-11T19:01:43.989Z,4.40
2018-02-11T19:04:11.566Z,5.50
2018-02-11T19:06:39.002Z,4.97
2018-02-11T19:09:06.473Z,4.78
2018-02-11T19:11:33.918Z,6.00
2018-02-11T19:14:01.352Z,5.20
2018-02-11T19:16:29.562Z,5.20
2018-02-11T19:18:57.021Z,4.60
2018-02-11T19:21:24.456Z,4.78
2018-02-11T19:23:52.028Z,4.72
2018-02-11T19:26:19.466Z,4.75
2018-02-11T19:28:46.884Z,4.87
2018-02-11T19:31:15.130Z,4.53
2018-02-11T19:33:42.582Z,5.80
2018-02-11T19:36:10.133Z,4.90
2018-02-11T19:38:37.604Z,4.50
2018-02-11T19:41:05.035Z,5.47
2018-02-11T19:43:32.478Z,5.60
2018-02-11T19:45:59.961Z,4.90
2018-02-11T19:48:27.633Z,5.47
2018-02-11T19:50:55.066Z,4.45
2018-02-11T19:53:23.558Z,4.80
2018-02-11T19:55:50.975Z,5.25
2018-02-11T19:58:18.473Z,5.53
2018-02-11T20:00:45.889Z,5.10
2018-02-11T20:03:13.397Z,4.85
2018-02-11T20:05:40.835Z,4.97
2018-02-11T20:08:08.271Z,5.50
2018-02-11T20:10:35.724Z,5.53
2018-02-11T20:13:03.226Z,4.70
2018-02-11T20:15:30.666Z,6.45
2018-02-11T20:17:58.124Z,5.00
2018-02-11T20:20:25.642Z,5.45
2018-02-11T20:22:53.061Z,5.60
2018-02-11T20:25:20.497Z,5.07
2018-02-11T20:27:47.931Z,4.78
2018-02-11T20:30:15.392Z,5.37
2018-02-11T20:32:42.873Z,5.30
2018-02-11T20:35:10.328Z,4.55
2018-02-11T20:37:37.879Z,5.00
2018-02-11T20:40:05.293Z,5.12
2018-02-11T20:42:32.721Z,4.45
2018-02-11T20:45:00.249Z,6.00
2018-02-11T20:47:27.674Z,5.18
2018-02-11T20:49:55.154Z,4.60
2018-02-11T20:52:22.619Z,5.22
2018-02-11T20:54:50.066Z,4.53
2018-02-11T20:57:17.522Z,4.63
2018-02-11T20:59:44.970Z,4.50
2018-02-11T21:02:12.411Z,5.10
2018-02-11T21:04:39.833Z,4.60
2018-02-11T21:07:08.050Z,5.67
2018-02-11T21:09:35.502Z,4.65
2018-02-11T21:12:02.972Z,4.97
2018-02-11T21:14:30.460Z,5.35
2018-02-11T21:16:58.668Z,4.82
2018-02-11T21:19:26.898Z,4.70
2018-02-11T21:21:54.424Z,5.00
2018-02-11T21:24:21.898Z,5.55
2018-02-11T21:26:49.354Z,4.75
2018-02-11T21:29:16.793Z,4.87
2018-02-11T21:31:44.370Z,5.28
2018-02-11T21:34:11.830Z,5.32
2018-02-11T21:36:39.259Z,5.60
2018-02-11T21:39:06.733Z,4.95
2018-02-11T21:41:34.165Z,5.37
2018-02-11T21:44:01.586Z,5.00
2018-02-11T21:46:29.800Z,5.35
2018-02-11T21:48:57.285Z,4.90
2018-02-11T21:51:24.714Z,4.70
2018-02-11T21:53:52.135Z,4.60
2018-02-11T21:56:20.340Z,5.20
2018-02-11T21:58:47.821Z,5.20
2018-02-11T22:01:15.281Z,5.15
2018-02-11T22:03:42.741Z,5.78
2018-02-11T22:06:10.182Z,4.62
2018-02-11T22:08:37.745Z,5.05
2018-02-11T22:11:05.209Z,5.05
2018-02-11T22:13:32.662Z,5.70
2018-02-11T22:16:00.110Z,5.10
2018-02-11T22:18:27.524Z,5.70
2018-02-11T22:20:55.753Z,5.00
2018-02-11T22:23:23.186Z,5.28
2018-02-11T22:25:50.665Z,5.32
2018-02-11T22:28:18.109Z,5.10
2018-02-11T22:30:45.571Z,5.00
2018-02-11T22:33:13.028Z,5.40
2018-02-11T22:35:40.492Z,4.97
2018-02-11T22:38:07.957Z,4.40
2018-02-11T22:40:35.381Z,4.80
2018-02-11T22:43:02.828Z,4.97
2018-02-11T22:45:30.249Z,5.20
2018-02-11T22:47:57.685Z,4.70
2018-02-11T22:50:25.229Z,4.87
2018-02-11T22:52:52.668Z,5.00
2018-02-11T22:55:20.094Z,4.62
2018-02-11T22:57:47.600Z,5.40
2018-02-11T23:00:15.048Z,5.80
2018-02-11T23:02:42.525Z,5.93
2018-02-11T23:05:09.969Z,4.90
2018-02-11T23:07:37.397Z,5.18
2018-02-11T23:10:04.872Z,4.70
2018-02-11T23:12:32.304Z,5.32
2018-02-11T23:14:59.725Z,4.90
2018-02-11T23:17:27.925Z,5.05
2018-02-11T23:19:55.361Z,4.80
2018-02-11T23:22:23.557Z,4.60
2018-02-11T23:24:51.052Z,4.75
2018-02-11T23:27:18.481Z,5.03
2018-02-11T23:29:45.968Z,4.93
2018-02-11T23:32:13.408Z,5.10
2018-02-11T23:34:40.845Z,4.97
2018-02-11T23:37:08.343Z,5.07
2018-02-11T23:39:35.769Z,5.05
2018-02-11T23:42:03.201Z,4.78
2018-02-11T23:44:31.406Z,5.47
2018-02-11T23:46:58.888Z,5.35
2018-02-11T23:49:26.332Z,5.78
2018-02-11T23:51:53.762Z,5.30
2018-02-11T23:54:21.192Z,4.82
2018-02-11T23:56:48.620Z,5.20
2018-02-11T23:59:16.148Z,6.30
